US EPA Bold — WAA2245 — position and weather

sailwx.info

Track history (hours):
 
Tides and Currents Weather Stations Pressure Air Temp Water Temp Dewpoint Dewpoint Depression Visibility Wind Speed Wind Dir Waves Ship Positions

Oceanographic research ship US EPA Bold (USA)

Ship's website: http://www.epa.gov/bold/

Last reported at 2018-Jun-07 02:45 UTC. Time now 2018-Jun-20 15:25 UTC.
Position N 47°40' W 122°23'.
Warning: this ship's position is 13 days out of date.

Length 67 m; draft 5 m.

Type: Cargo ship. MMSI: 367839000.

Date/timePositionNaut miles runAvg speedWind from/ knotsBaromVisibWave heightAir tempDewpointWater temp
2018-Jun-07 02:45N 47°40' W 122°23'0 0.2
2018-Jun-07 02:30N 47°40' W 122°24'0 0.5
2018-Jun-07 02:00N 47°40' W 122°23'0 0.9
2018-Jun-07 01:30N 47°40' W 122°24'3 6.8
2018-Jun-07 01:00N 47°43' W 122°25'510.7
2018-Jun-07 00:30N 47°49' W 122°25'610.7
2018-Jun-06 23:57N 47°54' W 122°21'2 3.4
2018-Jun-06 23:29N 47°56' W 122°20'1 2.8
2018-Jun-06 22:59N 47°54' W 122°21'0 0.7
2018-Jun-06 22:29N 47°54' W 122°22'0 0.9
2018-Jun-06 21:58N 47°54' W 122°21'0 0.7
2018-Jun-06 21:29N 47°55' W 122°21'0 0.3
2018-Jun-06 20:53N 47°55' W 122°21'0 0.5
2018-Jun-06 20:30N 47°55' W 122°20'0 0.3
2018-Jun-06 20:00N 47°55' W 122°20'0 0.7
2018-Jun-06 19:30N 47°55' W 122°21'0 0.2
2018-Jun-06 19:00N 47°55' W 122°21'0 0.2
2018-Jun-06 18:29N 47°55' W 122°21'0 0.1
2018-Jun-06 17:57N 47°55' W 122°21'1 1.8
2018-Jun-06 17:30N 47°54' W 122°21'1 1.4
2018-Jun-06 17:00N 47°55' W 122°21'1 1.2
2018-Jun-06 16:26N 47°55' W 122°20'1 1.9
2018-Jun-06 15:59N 47°54' W 122°21'0 0.7
2018-Jun-06 15:28N 47°54' W 122°20'0 0.3
2018-Jun-06 14:59N 47°54' W 122°21'3 5.7
2018-Jun-06 14:30N 47°52' W 122°23'611.2
2018-Jun-06 14:00N 47°47' W 122°25'510.7
2018-Jun-06 13:30N 47°41' W 122°25'2 3.3
2018-Jun-06 13:00N 47°40' W 122°24'0 0.4
2018-Jun-06 12:30N 47°40' W 122°23'0 0.2
2018-Jun-06 12:00N 47°40' W 122°23'0 0.0
2018-Jun-06 11:30N 47°40' W 122°23'0 0.0
2018-Jun-06 11:00N 47°40' W 122°23'0 0.0
2018-Jun-06 10:30N 47°40' W 122°23'0 0.1
2018-Jun-06 10:00N 47°40' W 122°24'0 0.1
2018-Jun-06 09:30N 47°40' W 122°23'0 0.1
2018-Jun-06 09:00N 47°40' W 122°24'0 0.1
2018-Jun-06 08:30N 47°40' W 122°23'0 0.0
2018-Jun-06 08:00N 47°40' W 122°23'0 0.1
2018-Jun-06 07:30N 47°40' W 122°24'0 0.0
2018-Jun-06 07:00N 47°40' W 122°24'0 0.0
2018-Jun-06 06:30N 47°40' W 122°24'0 0.0
2018-Jun-06 06:00N 47°40' W 122°24'0 0.0
2018-Jun-06 05:30N 47°40' W 122°24'0 0.0
2018-Jun-06 05:00N 47°40' W 122°24'0 0.0
2018-Jun-06 04:30N 47°40' W 122°24'0 0.0
2018-Jun-06 04:00N 47°40' W 122°24'0 0.1
2018-Jun-06 03:30N 47°40' W 122°23'0 0.0
2018-Jun-06 03:00N 47°40' W 122°23'0 0.1
2018-Jun-06 02:30N 47°40' W 122°24'0 0.1
2018-Jun-06 02:00N 47°40' W 122°23'0 0.1
2018-Jun-06 01:30N 47°40' W 122°24'0 0.0
2018-Jun-06 01:00N 47°40' W 122°24'0 0.0
2018-Jun-06 00:30N 47°40' W 122°24'0 0.1
2018-Jun-06 00:00N 47°40' W 122°23'0 0.1
2018-Jun-05 23:30N 47°40' W 122°24'0 0.0
2018-Jun-05 23:00N 47°40' W 122°24'0 0.0
2018-Jun-05 22:30N 47°40' W 122°24'0 0.0
2018-Jun-05 22:00N 47°40' W 122°24'0 0.1
2018-Jun-05 21:30N 47°40' W 122°23'0 0.1
2018-Jun-05 21:00N 47°40' W 122°24'0 0.0
2018-Jun-05 20:30N 47°40' W 122°24'0 0.0
2018-Jun-05 20:00N 47°40' W 122°24'0 0.0
2018-Jun-05 19:30N 47°40' W 122°24'0 0.0
2018-Jun-05 19:00N 47°40' W 122°24'0 0.0
2018-Jun-05 18:30N 47°40' W 122°24'0 0.0
2018-Jun-05 18:00N 47°40' W 122°24'0 0.0
2018-Jun-05 17:30N 47°40' W 122°24'0 0.1
2018-Jun-05 17:00N 47°40' W 122°23'0 0.1
2018-Jun-05 16:30N 47°40' W 122°24'0 0.0
2018-Jun-05 16:00N 47°40' W 122°24'0 0.0
2018-Jun-05 15:30N 47°40' W 122°24'0 0.0
2018-Jun-05 15:00N 47°40' W 122°24'0 0.0
2018-Jun-05 14:30N 47°40' W 122°24'0 0.0
2018-Jun-05 14:00N 47°40' W 122°24'0 0.1
2018-Jun-05 13:30N 47°40' W 122°23'0 0.0
2018-Jun-05 13:00N 47°40' W 122°23'0 0.1
2018-Jun-05 12:30N 47°40' W 122°24'0 0.1
2018-Jun-05 12:00N 47°40' W 122°23'0 0.1
2018-Jun-05 11:30N 47°40' W 122°24'0 0.1
2018-Jun-05 11:00N 47°40' W 122°23'0 0.1
2018-Jun-05 10:30N 47°40' W 122°24'0 0.0
2018-Jun-05 10:00N 47°40' W 122°24'0 0.0
2018-Jun-05 09:30N 47°40' W 122°24'0 0.0
2018-Jun-05 09:00N 47°40' W 122°24'0 0.0
2018-Jun-05 08:30N 47°40' W 122°24'0 0.1
2018-Jun-05 08:00N 47°40' W 122°23'0 0.0
2018-Jun-05 07:30N 47°40' W 122°23'0 0.1
2018-Jun-05 07:00N 47°40' W 122°24'0 0.0
2018-Jun-05 06:30N 47°40' W 122°24'0 0.1
2018-Jun-05 06:00N 47°40' W 122°23'0 0.1
2018-Jun-05 05:30N 47°40' W 122°24'0 0.0
2018-Jun-05 05:00N 47°40' W 122°24'0 0.1
2018-Jun-05 04:30N 47°40' W 122°23'0 0.1
2018-Jun-05 04:00N 47°40' W 122°24'0 0.0
2018-Jun-05 03:30N 47°40' W 122°24'0 0.0
2018-Jun-05 03:00N 47°40' W 122°24'0 0.0
2018-Jun-05 02:30N 47°40' W 122°24'0 0.0
2018-Jun-05 02:00N 47°40' W 122°24'0 0.0
2018-Jun-05 01:30N 47°40' W 122°24'0 0.0
2018-Jun-05 01:00N 47°40' W 122°24'0 0.0
2018-Jun-05 00:30N 47°40' W 122°24'0 0.0
2018-Jun-05 00:00N 47°40' W 122°24'0 0.0
2018-Jun-04 23:30N 47°40' W 122°24'0 0.0
2018-Jun-04 23:00N 47°40' W 122°24'0 0.0
2018-Jun-04 22:30N 47°40' W 122°24'0 0.0
2018-Jun-04 22:00N 47°40' W 122°24'0 0.1
2018-Jun-04 21:30N 47°40' W 122°23'0 0.1
2018-Jun-04 21:00N 47°40' W 122°24'0 0.0
2018-Jun-04 20:30N 47°40' W 122°24'0 0.0
2018-Jun-04 20:00N 47°40' W 122°24'0 0.0
2018-Jun-04 19:30N 47°40' W 122°24'0 0.0
2018-Jun-04 19:00N 47°40' W 122°24'0 0.0
2018-Jun-04 18:30N 47°40' W 122°24'0 0.0
2018-Jun-04 18:00N 47°40' W 122°24'0 0.0
2018-Jun-04 17:30N 47°40' W 122°24'0 0.0
2018-Jun-04 17:00N 47°40' W 122°24'0 0.0
2018-Jun-04 16:30N 47°40' W 122°24'0 0.0
2018-Jun-04 16:00N 47°40' W 122°24'  
Track history (hours):
 
Tides and Currents Weather Stations Pressure Air Temp Water Temp Dewpoint Dewpoint Depression Visibility Wind Speed Wind Dir Waves Ship Positions

Oceanographic research ship US EPA Bold (USA)

Ship's website: http://www.epa.gov/bold/

Last reported at 2018-Jun-07 02:45 UTC. Time now 2018-Jun-20 15:25 UTC.
Position N 47°40' W 122°23'.
Warning: this ship's position is 13 days out of date.

Length 67 m; draft 5 m.

Type: Cargo ship. MMSI: 367839000.

Date/timePositionNaut miles runAvg speedWind from/ knotsBaromVisibWave heightAir tempDewpointWater temp
2018-Jun-07 02:45N 47°40' W 122°23'0 0.2
2018-Jun-07 02:30N 47°40' W 122°24'0 0.5
2018-Jun-07 02:00N 47°40' W 122°23'0 0.9
2018-Jun-07 01:30N 47°40' W 122°24'3 6.8
2018-Jun-07 01:00N 47°43' W 122°25'510.7
2018-Jun-07 00:30N 47°49' W 122°25'610.7
2018-Jun-06 23:57N 47°54' W 122°21'2 3.4
2018-Jun-06 23:29N 47°56' W 122°20'1 2.8
2018-Jun-06 22:59N 47°54' W 122°21'0 0.7
2018-Jun-06 22:29N 47°54' W 122°22'0 0.9
2018-Jun-06 21:58N 47°54' W 122°21'0 0.7
2018-Jun-06 21:29N 47°55' W 122°21'0 0.3
2018-Jun-06 20:53N 47°55' W 122°21'0 0.5
2018-Jun-06 20:30N 47°55' W 122°20'0 0.3
2018-Jun-06 20:00N 47°55' W 122°20'0 0.7
2018-Jun-06 19:30N 47°55' W 122°21'0 0.2
2018-Jun-06 19:00N 47°55' W 122°21'0 0.2
2018-Jun-06 18:29N 47°55' W 122°21'0 0.1
2018-Jun-06 17:57N 47°55' W 122°21'1 1.8
2018-Jun-06 17:30N 47°54' W 122°21'1 1.4
2018-Jun-06 17:00N 47°55' W 122°21'1 1.2
2018-Jun-06 16:26N 47°55' W 122°20'1 1.9
2018-Jun-06 15:59N 47°54' W 122°21'0 0.7
2018-Jun-06 15:28N 47°54' W 122°20'0 0.3
2018-Jun-06 14:59N 47°54' W 122°21'3 5.7
2018-Jun-06 14:30N 47°52' W 122°23'611.2
2018-Jun-06 14:00N 47°47' W 122°25'510.7
2018-Jun-06 13:30N 47°41' W 122°25'2 3.3
2018-Jun-06 13:00N 47°40' W 122°24'0 0.4
2018-Jun-06 12:30N 47°40' W 122°23'0 0.2
2018-Jun-06 12:00N 47°40' W 122°23'0 0.0
2018-Jun-06 11:30N 47°40' W 122°23'0 0.0
2018-Jun-06 11:00N 47°40' W 122°23'0 0.0
2018-Jun-06 10:30N 47°40' W 122°23'0 0.1
2018-Jun-06 10:00N 47°40' W 122°24'0 0.1
2018-Jun-06 09:30N 47°40' W 122°23'0 0.1
2018-Jun-06 09:00N 47°40' W 122°24'0 0.1
2018-Jun-06 08:30N 47°40' W 122°23'0 0.0
2018-Jun-06 08:00N 47°40' W 122°23'0 0.1
2018-Jun-06 07:30N 47°40' W 122°24'0 0.0
2018-Jun-06 07:00N 47°40' W 122°24'0 0.0
2018-Jun-06 06:30N 47°40' W 122°24'0 0.0
2018-Jun-06 06:00N 47°40' W 122°24'0 0.0
2018-Jun-06 05:30N 47°40' W 122°24'0 0.0
2018-Jun-06 05:00N 47°40' W 122°24'0 0.0
2018-Jun-06 04:30N 47°40' W 122°24'0 0.0
2018-Jun-06 04:00N 47°40' W 122°24'0 0.1
2018-Jun-06 03:30N 47°40' W 122°23'0 0.0
2018-Jun-06 03:00N 47°40' W 122°23'0 0.1
2018-Jun-06 02:30N 47°40' W 122°24'0 0.1
2018-Jun-06 02:00N 47°40' W 122°23'0 0.1
2018-Jun-06 01:30N 47°40' W 122°24'0 0.0
2018-Jun-06 01:00N 47°40' W 122°24'0 0.0
2018-Jun-06 00:30N 47°40' W 122°24'0 0.1
2018-Jun-06 00:00N 47°40' W 122°23'0 0.1
2018-Jun-05 23:30N 47°40' W 122°24'0 0.0
2018-Jun-05 23:00N 47°40' W 122°24'0 0.0
2018-Jun-05 22:30N 47°40' W 122°24'0 0.0
2018-Jun-05 22:00N 47°40' W 122°24'0 0.1
2018-Jun-05 21:30N 47°40' W 122°23'0 0.1
2018-Jun-05 21:00N 47°40' W 122°24'0 0.0
2018-Jun-05 20:30N 47°40' W 122°24'0 0.0
2018-Jun-05 20:00N 47°40' W 122°24'0 0.0
2018-Jun-05 19:30N 47°40' W 122°24'0 0.0
2018-Jun-05 19:00N 47°40' W 122°24'0 0.0
2018-Jun-05 18:30N 47°40' W 122°24'0 0.0
2018-Jun-05 18:00N 47°40' W 122°24'0 0.0
2018-Jun-05 17:30N 47°40' W 122°24'0 0.1
2018-Jun-05 17:00N 47°40' W 122°23'0 0.1
2018-Jun-05 16:30N 47°40' W 122°24'0 0.0
2018-Jun-05 16:00N 47°40' W 122°24'0 0.0
2018-Jun-05 15:30N 47°40' W 122°24'0 0.0
2018-Jun-05 15:00N 47°40' W 122°24'0 0.0
2018-Jun-05 14:30N 47°40' W 122°24'0 0.0
2018-Jun-05 14:00N 47°40' W 122°24'0 0.1
2018-Jun-05 13:30N 47°40' W 122°23'0 0.0
2018-Jun-05 13:00N 47°40' W 122°23'0 0.1
2018-Jun-05 12:30N 47°40' W 122°24'0 0.1
2018-Jun-05 12:00N 47°40' W 122°23'0 0.1
2018-Jun-05 11:30N 47°40' W 122°24'0 0.1
2018-Jun-05 11:00N 47°40' W 122°23'0 0.1
2018-Jun-05 10:30N 47°40' W 122°24'0 0.0
2018-Jun-05 10:00N 47°40' W 122°24'0 0.0
2018-Jun-05 09:30N 47°40' W 122°24'0 0.0
2018-Jun-05 09:00N 47°40' W 122°24'0 0.0
2018-Jun-05 08:30N 47°40' W 122°24'0 0.1
2018-Jun-05 08:00N 47°40' W 122°23'0 0.0
2018-Jun-05 07:30N 47°40' W 122°23'0 0.1
2018-Jun-05 07:00N 47°40' W 122°24'0 0.0
2018-Jun-05 06:30N 47°40' W 122°24'0 0.1
2018-Jun-05 06:00N 47°40' W 122°23'0 0.1
2018-Jun-05 05:30N 47°40' W 122°24'0 0.0
2018-Jun-05 05:00N 47°40' W 122°24'0 0.1
2018-Jun-05 04:30N 47°40' W 122°23'0 0.1
2018-Jun-05 04:00N 47°40' W 122°24'0 0.0
2018-Jun-05 03:30N 47°40' W 122°24'0 0.0
2018-Jun-05 03:00N 47°40' W 122°24'0 0.0
2018-Jun-05 02:30N 47°40' W 122°24'0 0.0
2018-Jun-05 02:00N 47°40' W 122°24'0 0.0
2018-Jun-05 01:30N 47°40' W 122°24'0 0.0
2018-Jun-05 01:00N 47°40' W 122°24'0 0.0
2018-Jun-05 00:30N 47°40' W 122°24'0 0.0
2018-Jun-05 00:00N 47°40' W 122°24'0 0.0
2018-Jun-04 23:30N 47°40' W 122°24'0 0.0
2018-Jun-04 23:00N 47°40' W 122°24'0 0.0
2018-Jun-04 22:30N 47°40' W 122°24'0 0.0
2018-Jun-04 22:00N 47°40' W 122°24'0 0.1
2018-Jun-04 21:30N 47°40' W 122°23'0 0.1
2018-Jun-04 21:00N 47°40' W 122°24'0 0.0
2018-Jun-04 20:30N 47°40' W 122°24'0 0.0
2018-Jun-04 20:00N 47°40' W 122°24'0 0.0
2018-Jun-04 19:30N 47°40' W 122°24'0 0.0
2018-Jun-04 19:00N 47°40' W 122°24'0 0.0
2018-Jun-04 18:30N 47°40' W 122°24'0 0.0
2018-Jun-04 18:00N 47°40' W 122°24'0 0.0
2018-Jun-04 17:30N 47°40' W 122°24'0 0.0
2018-Jun-04 17:00N 47°40' W 122°24'0 0.0
2018-Jun-04 16:30N 47°40' W 122°24'0 0.0
2018-Jun-04 16:00N 47°40' W 122°24'  

Dump ship's entire track history